createdAt,value
2019-05-18T00:00:33.685Z,100.00
2019-05-18T00:02:59.546Z,100.00
2019-05-18T00:05:25.701Z,100.00
2019-05-18T00:07:51.650Z,100.00
2019-05-18T00:10:17.717Z,100.00
2019-05-18T00:12:43.668Z,100.00
2019-05-18T00:15:09.906Z,100.00
2019-05-18T00:17:35.743Z,100.00
2019-05-18T00:20:06.954Z,100.00
2019-05-18T00:22:32.831Z,100.00
2019-05-18T00:24:58.829Z,100.00
2019-05-18T00:27:24.729Z,100.00
2019-05-18T00:29:50.585Z,100.00
2019-05-18T00:32:16.632Z,100.00
2019-05-18T00:34:42.604Z,100.00
2019-05-18T00:37:08.449Z,100.00
2019-05-18T00:39:34.349Z,100.00
2019-05-18T00:42:00.274Z,100.00
2019-05-18T00:44:26.227Z,100.00
2019-05-18T00:46:52.177Z,100.00
2019-05-18T00:49:18.090Z,100.00
2019-05-18T00:51:44.334Z,100.00
2019-05-18T00:54:10.197Z,100.00
2019-05-18T00:56:36.173Z,100.00
2019-05-18T00:59:02.131Z,100.00
2019-05-18T01:01:27.973Z,100.00
2019-05-18T01:03:53.802Z,100.00
2019-05-18T01:06:19.656Z,100.00
2019-05-18T01:08:45.589Z,100.00
2019-05-18T01:11:11.571Z,100.00
2019-05-18T01:13:37.510Z,100.00
2019-05-18T01:16:03.486Z,100.00
2019-05-18T01:18:29.311Z,100.00
2019-05-18T01:20:56.745Z,100.00
2019-05-18T01:23:22.695Z,100.00
2019-05-18T01:25:48.539Z,100.00
2019-05-18T01:28:14.594Z,100.00
2019-05-18T01:30:40.561Z,100.00
2019-05-18T01:33:06.491Z,100.00
2019-05-18T01:35:32.316Z,100.00
2019-05-18T01:37:58.266Z,100.00
2019-05-18T01:40:24.210Z,100.00
2019-05-18T01:42:50.169Z,100.00
2019-05-18T01:45:17.564Z,100.00
2019-05-18T01:47:43.621Z,100.00
2019-05-18T01:50:09.687Z,100.00
2019-05-18T01:52:35.504Z,100.00
2019-05-18T01:55:02.660Z,100.00
2019-05-18T01:57:28.501Z,100.00
2019-05-18T01:59:54.453Z,100.00
2019-05-18T02:02:20.406Z,100.00
2019-05-18T02:04:46.362Z,100.00
2019-05-18T02:07:12.300Z,100.00
2019-05-18T02:09:38.262Z,100.00
2019-05-18T02:12:04.130Z,100.00
2019-05-18T02:14:30.066Z,100.00
2019-05-18T02:16:55.983Z,100.00
2019-05-18T02:19:24.749Z,100.00
2019-05-18T02:21:49.687Z,100.00
2019-05-18T02:24:15.656Z,100.00
2019-05-18T02:26:41.702Z,100.00
2019-05-18T02:29:07.753Z,100.00
2019-05-18T02:31:33.796Z,100.00
2019-05-18T02:33:59.763Z,100.00
2019-05-18T02:36:25.727Z,100.00
2019-05-18T02:38:51.592Z,100.00
2019-05-18T02:41:17.424Z,100.00
2019-05-18T02:43:43.388Z,100.00
2019-05-18T02:46:09.214Z,100.00
2019-05-18T02:48:48.892Z,100.00
2019-05-18T02:51:02.936Z,100.00
2019-05-18T02:53:28.894Z,100.00
2019-05-18T02:55:54.917Z,100.00
2019-05-18T02:58:20.917Z,100.00
2019-05-18T03:00:46.821Z,100.00
2019-05-18T03:03:12.765Z,100.00
2019-05-18T03:05:38.630Z,100.00
2019-05-18T03:08:04.580Z,100.00
2019-05-18T03:10:30.719Z,100.00
2019-05-18T03:12:56.692Z,100.00
2019-05-18T03:15:22.738Z,100.00
2019-05-18T03:17:48.712Z,100.00
2019-05-18T03:20:15.574Z,100.00
2019-05-18T03:22:41.521Z,100.00
2019-05-18T03:25:07.846Z,100.00
2019-05-18T03:27:33.954Z,100.00
2019-05-18T03:29:59.887Z,100.00
2019-05-18T03:32:25.797Z,100.00
2019-05-18T03:34:51.680Z,100.00
2019-05-18T03:37:20.396Z,100.00
2019-05-18T03:39:46.342Z,100.00
2019-05-18T03:42:12.287Z,100.00
2019-05-18T03:44:38.124Z,100.00
2019-05-18T03:47:04.062Z,100.00
2019-05-18T03:49:30.015Z,100.00
2019-05-18T03:51:55.946Z,100.00
2019-05-18T03:54:21.804Z,100.00
2019-05-18T03:56:47.734Z,100.00
2019-05-18T03:59:13.683Z,100.00
2019-05-18T04:01:39.519Z,100.00
2019-05-18T04:04:05.392Z,100.00
2019-05-18T04:06:31.220Z,100.00
2019-05-18T04:08:57.180Z,100.00
2019-05-18T04:11:23.028Z,100.00
2019-05-18T04:13:48.947Z,100.00
2019-05-18T04:16:14.881Z,100.00
2019-05-18T04:18:40.707Z,100.00
2019-05-18T04:21:06.666Z,100.00
2019-05-18T04:23:32.602Z,100.00
2019-05-18T04:25:58.447Z,100.00
2019-05-18T04:28:24.519Z,100.00
2019-05-18T04:30:50.475Z,100.00
2019-05-18T04:33:16.568Z,100.00
2019-05-18T04:35:42.506Z,100.00
2019-05-18T04:38:08.368Z,100.00
2019-05-18T04:40:34.299Z,100.00
2019-05-18T04:43:00.150Z,100.00
2019-05-18T04:45:26.086Z,100.00
2019-05-18T04:47:52.033Z,100.00
2019-05-18T04:50:18.082Z,100.00
2019-05-18T04:52:43.933Z,100.00
2019-05-18T04:55:09.801Z,100.00
2019-05-18T04:57:35.779Z,100.00
2019-05-18T05:00:04.433Z,100.00
2019-05-18T05:02:30.360Z,100.00
2019-05-18T05:04:56.862Z,100.00
2019-05-18T05:07:22.874Z,100.00
2019-05-18T05:09:48.829Z,100.00
2019-05-18T05:12:14.668Z,100.00
2019-05-18T05:14:40.755Z,100.00
2019-05-18T05:17:06.601Z,100.00
2019-05-18T05:19:32.547Z,100.00
2019-05-18T05:21:58.506Z,100.00
2019-05-18T05:24:24.358Z,100.00
2019-05-18T05:26:50.225Z,100.00
2019-05-18T05:29:16.059Z,100.00
2019-05-18T05:31:42.027Z,100.00
2019-05-18T05:34:07.879Z,100.00
2019-05-18T05:36:33.734Z,100.00
2019-05-18T05:38:59.554Z,100.00
2019-05-18T05:41:25.409Z,100.00
2019-05-18T05:43:51.228Z,100.00
2019-05-18T05:46:17.164Z,100.00
2019-05-18T05:48:43.115Z,100.00
2019-05-18T05:51:09.057Z,100.00
2019-05-18T05:53:34.916Z,100.00
2019-05-18T05:56:00.775Z,100.00
2019-05-18T05:58:26.630Z,100.00
2019-05-18T06:00:52.585Z,100.00
2019-05-18T06:03:18.423Z,100.00
2019-05-18T06:05:44.345Z,100.00
2019-05-18T06:08:10.284Z,100.00
2019-05-18T06:10:36.249Z,100.00
2019-05-18T06:13:02.093Z,100.00
2019-05-18T06:15:28.131Z,100.00
2019-05-18T06:17:54.092Z,100.00
2019-05-18T06:20:19.974Z,100.00
2019-05-18T06:22:45.864Z,100.00
2019-05-18T06:25:12.051Z,100.00
2019-05-18T06:27:38.048Z,100.00
2019-05-18T06:30:04.731Z,100.00
2019-05-18T06:32:30.599Z,100.00
2019-05-18T06:34:56.471Z,100.00
2019-05-18T06:37:22.439Z,100.00
2019-05-18T06:39:48.481Z,100.00
2019-05-18T06:42:14.450Z,100.00
2019-05-18T06:44:40.399Z,100.00
2019-05-18T06:47:06.343Z,100.00
2019-05-18T06:49:32.266Z,100.00
2019-05-18T06:51:58.316Z,100.00
2019-05-18T06:54:24.348Z,100.00
2019-05-18T06:56:50.726Z,100.00
2019-05-18T06:59:16.761Z,100.00
2019-05-18T07:01:42.881Z,100.00
2019-05-18T07:04:08.814Z,100.00
2019-05-18T07:06:34.685Z,100.00
2019-05-18T07:09:00.623Z,100.00
2019-05-18T07:11:26.579Z,100.00
2019-05-18T07:13:52.452Z,100.00
2019-05-18T07:16:18.413Z,100.00
2019-05-18T07:18:44.353Z,100.00
2019-05-18T07:21:21.328Z,100.00
2019-05-18T07:23:38.107Z,100.00
2019-05-18T07:26:04.049Z,100.00
2019-05-18T07:28:30.019Z,100.00
2019-05-18T07:30:55.977Z,100.00
2019-05-18T07:33:21.931Z,100.00
2019-05-18T07:35:47.886Z,100.00
2019-05-18T07:38:13.718Z,100.00
2019-05-18T07:40:39.666Z,100.00
2019-05-18T07:43:05.535Z,100.00
2019-05-18T07:45:31.480Z,99.15
2019-05-18T07:47:57.327Z,97.87
2019-05-18T07:50:23.365Z,97.60
2019-05-18T07:52:49.443Z,100.00
2019-05-18T07:55:15.697Z,96.95
2019-05-18T07:57:41.587Z,97.22
2019-05-18T08:00:07.944Z,99.00
2019-05-18T08:02:33.829Z,95.17
2019-05-18T08:04:59.701Z,94.12
2019-05-18T08:07:25.646Z,95.44
2019-05-18T08:09:51.510Z,96.03
2019-05-18T08:12:17.564Z,92.83
2019-05-18T08:14:43.664Z,93.39
2019-05-18T08:17:09.642Z,94.18
2019-05-18T08:19:35.561Z,92.66
2019-05-18T08:22:01.505Z,92.68
2019-05-18T08:24:27.355Z,93.52
2019-05-18T08:26:53.251Z,91.46
2019-05-18T08:29:19.134Z,89.98
2019-05-18T08:31:45.087Z,87.16
2019-05-18T08:34:10.912Z,87.72
2019-05-18T08:36:36.801Z,86.77
2019-05-18T08:39:04.355Z,87.22
2019-05-18T08:41:30.204Z,86.53
2019-05-18T08:43:56.165Z,88.55
2019-05-18T08:46:22.019Z,87.37
2019-05-18T08:48:47.977Z,85.60
2019-05-18T08:51:13.818Z,84.17
2019-05-18T08:53:39.680Z,83.32
2019-05-18T08:56:05.508Z,81.88
2019-05-18T08:58:31.401Z,83.08
2019-05-18T09:00:57.231Z,80.02
2019-05-18T09:03:23.092Z,79.99
2019-05-18T09:05:48.927Z,80.42
2019-05-18T09:08:14.790Z,81.94
2019-05-18T09:10:40.658Z,81.25
2019-05-18T09:13:06.633Z,80.72
2019-05-18T09:15:32.482Z,82.43
2019-05-18T09:17:58.356Z,82.15
2019-05-18T09:20:24.223Z,80.97
2019-05-18T09:22:50.100Z,82.87
2019-05-18T09:25:16.248Z,82.34
2019-05-18T09:27:42.292Z,81.37
2019-05-18T09:30:09.391Z,79.30
2019-05-18T09:32:35.530Z,80.88
2019-05-18T09:35:01.711Z,80.99
2019-05-18T09:37:27.552Z,79.82
2019-05-18T09:39:53.542Z,81.00
2019-05-18T09:42:19.611Z,83.75
2019-05-18T09:44:45.563Z,79.29
2019-05-18T09:47:11.431Z,79.62
2019-05-18T09:49:37.297Z,79.20
2019-05-18T09:52:03.276Z,81.53
2019-05-18T09:54:29.225Z,78.87
2019-05-18T09:56:55.100Z,75.90
2019-05-18T09:59:20.961Z,82.49
2019-05-18T10:01:46.872Z,78.71
2019-05-18T10:04:12.798Z,78.93
2019-05-18T10:06:38.644Z,80.01
2019-05-18T10:09:07.681Z,80.16
2019-05-18T10:11:38.499Z,76.74
2019-05-18T10:14:01.601Z,75.39
2019-05-18T10:16:27.483Z,78.17
2019-05-18T10:18:53.350Z,78.07
2019-05-18T10:21:19.336Z,79.37
2019-05-18T10:23:45.209Z,78.66
2019-05-18T10:26:11.054Z,77.26
2019-05-18T10:28:36.958Z,78.20
2019-05-18T10:31:03.576Z,79.93
2019-05-18T10:33:29.448Z,77.97
2019-05-18T10:35:55.298Z,75.78
2019-05-18T10:38:21.255Z,74.88
2019-05-18T10:40:47.229Z,75.55
2019-05-18T10:43:13.117Z,74.76
2019-05-18T10:45:39.099Z,75.08
2019-05-18T10:48:05.188Z,75.40
2019-05-18T10:50:31.108Z,80.67
2019-05-18T10:52:57.005Z,74.87
2019-05-18T10:55:22.989Z,75.85
2019-05-18T10:57:48.963Z,75.63
2019-05-18T11:00:15.295Z,73.23
2019-05-18T11:02:41.134Z,72.66
2019-05-18T11:05:08.211Z,70.97
2019-05-18T11:07:34.175Z,73.25
2019-05-18T11:10:00.040Z,70.83
2019-05-18T11:12:25.915Z,69.39
2019-05-18T11:14:51.821Z,70.98
2019-05-18T11:17:17.822Z,72.53
2019-05-18T11:19:43.778Z,71.64
2019-05-18T11:22:09.718Z,69.00
2019-05-18T11:24:35.691Z,71.71
2019-05-18T11:27:01.544Z,70.11
2019-05-18T11:29:27.380Z,68.69
2019-05-18T11:31:53.353Z,68.22
2019-05-18T11:34:19.319Z,69.22
2019-05-18T11:36:45.212Z,69.34
2019-05-18T11:39:11.100Z,68.72
2019-05-18T11:41:37.050Z,70.42
2019-05-18T11:44:03.172Z,66.67
2019-05-18T11:46:29.042Z,65.89
2019-05-18T11:48:54.984Z,66.31
2019-05-18T11:51:21.046Z,66.79
2019-05-18T11:53:57.846Z,65.50
2019-05-18T11:56:14.886Z,65.11
2019-05-18T11:58:40.840Z,67.08
2019-05-18T12:01:06.735Z,65.15
2019-05-18T12:03:33.121Z,62.48
2019-05-18T12:05:59.088Z,61.58
2019-05-18T12:08:24.964Z,62.15
2019-05-18T12:10:52.323Z,61.53
2019-05-18T12:13:18.181Z,63.10
2019-05-18T12:15:44.047Z,59.81
2019-05-18T12:18:10.012Z,59.39
2019-05-18T12:20:35.887Z,59.39
2019-05-18T12:23:01.719Z,60.89
2019-05-18T12:25:27.576Z,61.58
2019-05-18T12:27:53.595Z,59.00
2019-05-18T12:30:19.957Z,60.85
2019-05-18T12:32:45.890Z,57.47
2019-05-18T12:35:12.294Z,58.91
2019-05-18T12:37:38.165Z,56.16
2019-05-18T12:40:05.732Z,54.32
2019-05-18T12:42:31.590Z,55.49
2019-05-18T12:44:57.585Z,52.58
2019-05-18T12:47:23.894Z,51.67
2019-05-18T12:49:49.816Z,52.27
2019-05-18T12:52:15.755Z,55.38
2019-05-18T12:54:46.462Z,57.62
2019-05-18T12:57:09.463Z,55.30
2019-05-18T12:59:35.350Z,54.80
2019-05-18T13:02:01.223Z,54.91
2019-05-18T13:04:27.084Z,54.91
2019-05-18T13:06:52.937Z,54.01
2019-05-18T13:09:18.835Z,51.18
2019-05-18T13:11:44.685Z,49.39
2019-05-18T13:14:10.558Z,48.73
2019-05-18T13:16:36.409Z,49.40
2019-05-18T13:19:02.486Z,47.32
2019-05-18T13:21:28.338Z,47.86
2019-05-18T13:23:54.203Z,47.60
2019-05-18T13:26:20.106Z,49.05
2019-05-18T13:28:46.025Z,47.34
2019-05-18T13:31:12.006Z,46.62
2019-05-18T13:33:37.826Z,44.89
2019-05-18T13:36:03.825Z,47.28
2019-05-18T13:38:29.684Z,45.16
2019-05-18T13:40:55.581Z,47.30
2019-05-18T13:43:21.569Z,45.68
2019-05-18T13:45:47.413Z,45.22
2019-05-18T13:48:13.380Z,45.91
2019-05-18T13:50:39.431Z,48.25
2019-05-18T13:53:05.392Z,47.38
2019-05-18T13:55:31.240Z,45.86
2019-05-18T13:57:57.124Z,45.51
2019-05-18T14:00:23.183Z,46.29
2019-05-18T14:02:49.160Z,45.52
2019-05-18T14:05:15.204Z,46.19
2019-05-18T14:07:41.087Z,44.58
2019-05-18T14:10:07.438Z,43.64
2019-05-18T14:12:33.370Z,43.64
2019-05-18T14:14:59.344Z,45.02
2019-05-18T14:17:25.177Z,45.38
2019-05-18T14:19:51.035Z,44.92
2019-05-18T14:22:16.910Z,45.10
2019-05-18T14:24:42.766Z,48.49
2019-05-18T14:27:08.639Z,47.68
2019-05-18T14:29:34.527Z,46.68
2019-05-18T14:32:00.377Z,47.22
2019-05-18T14:34:26.313Z,48.30
2019-05-18T14:36:52.197Z,49.49
2019-05-18T14:39:18.054Z,48.62
2019-05-18T14:41:43.931Z,48.87
2019-05-18T14:44:09.782Z,48.50
2019-05-18T14:46:35.654Z,46.96
2019-05-18T14:49:01.496Z,47.59
2019-05-18T14:51:27.393Z,46.43
2019-05-18T14:53:53.244Z,47.47
2019-05-18T14:56:19.119Z,47.69
2019-05-18T14:58:44.991Z,47.30
2019-05-18T15:01:10.962Z,47.79
2019-05-18T15:03:36.821Z,48.99
2019-05-18T15:06:02.787Z,47.60
2019-05-18T15:08:28.619Z,47.91
2019-05-18T15:10:54.552Z,46.99
2019-05-18T15:13:20.522Z,45.38
2019-05-18T15:15:46.494Z,46.28
2019-05-18T15:18:12.482Z,45.57
2019-05-18T15:20:38.437Z,47.18
2019-05-18T15:23:04.402Z,46.21
2019-05-18T15:25:30.339Z,46.98
2019-05-18T15:27:56.288Z,47.83
2019-05-18T15:30:22.518Z,47.66
2019-05-18T15:32:48.370Z,47.66
2019-05-18T15:35:14.573Z,47.93
2019-05-18T15:37:43.424Z,46.13
2019-05-18T15:40:08.637Z,45.50
2019-05-18T15:42:34.498Z,44.47
2019-05-18T15:45:00.500Z,44.72
2019-05-18T15:47:26.362Z,43.42
2019-05-18T15:49:52.213Z,42.01
2019-05-18T15:52:18.220Z,42.33
2019-05-18T15:54:44.170Z,41.15
2019-05-18T15:57:10.038Z,42.43
2019-05-18T15:59:35.994Z,43.36
2019-05-18T16:02:06.127Z,42.50
2019-05-18T16:04:29.817Z,42.41
2019-05-18T16:06:55.679Z,41.92
2019-05-18T16:09:21.537Z,41.04
2019-05-18T16:11:47.429Z,40.34
2019-05-18T16:14:13.279Z,41.77
2019-05-18T16:16:39.279Z,43.32
2019-05-18T16:19:05.245Z,44.28
2019-05-18T16:21:31.416Z,43.50
2019-05-18T16:23:57.275Z,43.24
2019-05-18T16:26:23.123Z,42.42
2019-05-18T16:28:49.213Z,43.36
2019-05-18T16:31:15.186Z,44.38
2019-05-18T16:33:41.159Z,43.92
2019-05-18T16:36:07.108Z,44.92
2019-05-18T16:38:33.092Z,42.93
2019-05-18T16:40:59.053Z,42.77
2019-05-18T16:43:25.032Z,44.25
2019-05-18T16:45:50.986Z,45.12
2019-05-18T16:48:16.946Z,44.81
2019-05-18T16:50:42.943Z,45.33
2019-05-18T16:53:09.006Z,44.52
2019-05-18T16:55:35.022Z,45.29
2019-05-18T16:58:02.194Z,44.77
2019-05-18T17:00:28.318Z,44.55
2019-05-18T17:02:54.178Z,45.78
2019-05-18T17:05:20.062Z,46.65
2019-05-18T17:07:46.028Z,47.18
2019-05-18T17:10:13.394Z,46.07
2019-05-18T17:12:39.403Z,46.30
2019-05-18T17:15:06.645Z,45.63
2019-05-18T17:17:35.330Z,45.67
2019-05-18T17:20:00.591Z,43.96
2019-05-18T17:22:26.675Z,43.93
2019-05-18T17:24:52.637Z,44.29
2019-05-18T17:27:18.616Z,44.40
2019-05-18T17:29:44.464Z,44.60
2019-05-18T17:32:10.358Z,44.09
2019-05-18T17:34:36.334Z,43.49
2019-05-18T17:37:02.303Z,44.19
2019-05-18T17:39:28.268Z,44.91
2019-05-18T17:41:54.155Z,45.47
2019-05-18T17:44:20.007Z,46.37
2019-05-18T17:46:45.996Z,45.99
2019-05-18T17:49:25.888Z,46.13
2019-05-18T17:51:39.914Z,46.58
2019-05-18T17:54:05.875Z,47.13
2019-05-18T17:56:31.738Z,47.15
2019-05-18T17:58:57.687Z,47.89
2019-05-18T18:01:23.782Z,47.24
2019-05-18T18:03:49.648Z,47.74
2019-05-18T18:06:15.532Z,47.94
2019-05-18T18:08:41.511Z,48.64
2019-05-18T18:11:07.363Z,48.44
2019-05-18T18:13:33.349Z,49.60
2019-05-18T18:15:59.326Z,48.97
2019-05-18T18:18:25.296Z,49.59
2019-05-18T18:20:51.358Z,49.82
2019-05-18T18:23:17.215Z,50.11
2019-05-18T18:25:43.170Z,50.67
2019-05-18T18:28:09.148Z,51.53
2019-05-18T18:30:34.986Z,52.23
2019-05-18T18:33:00.851Z,51.84
2019-05-18T18:35:26.850Z,52.46
2019-05-18T18:37:52.715Z,53.22
2019-05-18T18:40:18.609Z,53.22
2019-05-18T18:42:44.495Z,53.97
2019-05-18T18:45:10.473Z,54.91
2019-05-18T18:47:36.586Z,55.68
2019-05-18T18:50:04.348Z,55.76
2019-05-18T18:52:30.301Z,56.41
2019-05-18T18:54:56.277Z,56.54
2019-05-18T18:57:22.246Z,57.15
2019-05-18T18:59:48.226Z,57.62
2019-05-18T19:02:14.090Z,57.76
2019-05-18T19:04:40.074Z,57.49
2019-05-18T19:07:09.014Z,58.46
2019-05-18T19:09:33.817Z,58.57
2019-05-18T19:11:59.701Z,58.50
2019-05-18T19:14:25.707Z,58.18
2019-05-18T19:16:51.538Z,58.67
2019-05-18T19:19:17.403Z,59.29
2019-05-18T19:21:43.245Z,60.24
2019-05-18T19:24:09.211Z,59.83
2019-05-18T19:26:35.188Z,59.73
2019-05-18T19:29:01.046Z,60.16
2019-05-18T19:31:26.922Z,60.66
2019-05-18T19:33:52.880Z,61.17
2019-05-18T19:36:18.808Z,62.10
2019-05-18T19:38:44.669Z,62.66
2019-05-18T19:41:11.383Z,63.10
2019-05-18T19:43:37.339Z,63.28
2019-05-18T19:46:03.308Z,63.50
2019-05-18T19:48:29.158Z,64.45
2019-05-18T19:50:55.038Z,65.38
2019-05-18T19:53:21.009Z,66.23
2019-05-18T19:55:46.997Z,66.92
2019-05-18T19:58:12.937Z,67.48
2019-05-18T20:00:38.987Z,68.15
2019-05-18T20:03:04.951Z,69.14
2019-05-18T20:05:30.896Z,70.10
2019-05-18T20:07:56.916Z,70.76
2019-05-18T20:10:22.761Z,71.31
2019-05-18T20:12:48.720Z,71.46
2019-05-18T20:15:15.459Z,71.05
2019-05-18T20:17:41.340Z,72.67
2019-05-18T20:20:07.580Z,72.50
2019-05-18T20:22:33.466Z,72.57
2019-05-18T20:24:59.529Z,73.08
2019-05-18T20:27:25.353Z,72.71
2019-05-18T20:29:51.348Z,73.77
2019-05-18T20:32:17.276Z,72.85
2019-05-18T20:34:43.130Z,72.81
2019-05-18T20:37:09.075Z,72.50
2019-05-18T20:39:34.934Z,73.51
2019-05-18T20:42:00.781Z,73.09
2019-05-18T20:44:26.737Z,73.41
2019-05-18T20:46:52.694Z,74.53
2019-05-18T20:49:18.662Z,74.32
2019-05-18T20:51:44.505Z,74.09
2019-05-18T20:54:10.359Z,75.63
2019-05-18T20:56:36.226Z,76.75
2019-05-18T20:59:02.197Z,76.91
2019-05-18T21:01:28.267Z,76.94
2019-05-18T21:03:54.230Z,76.92
2019-05-18T21:06:20.086Z,78.38
2019-05-18T21:08:46.046Z,79.33
2019-05-18T21:11:11.993Z,79.15
2019-05-18T21:13:37.834Z,79.96
2019-05-18T21:16:03.675Z,80.86
2019-05-18T21:18:29.516Z,81.07
2019-05-18T21:20:55.348Z,80.41
2019-05-18T21:23:21.323Z,80.09
2019-05-18T21:25:47.196Z,80.59
2019-05-18T21:28:13.048Z,80.69
2019-05-18T21:30:38.891Z,81.75
2019-05-18T21:33:04.858Z,81.38
2019-05-18T21:35:30.916Z,82.65
2019-05-18T21:37:57.064Z,82.15
2019-05-18T21:40:26.107Z,82.61
2019-05-18T21:42:50.805Z,82.55
2019-05-18T21:45:16.791Z,83.51
2019-05-18T21:47:43.985Z,83.64
2019-05-18T21:50:10.136Z,84.60
2019-05-18T21:52:36.180Z,84.42
2019-05-18T21:55:05.624Z,85.73
2019-05-18T21:57:31.579Z,86.33
2019-05-18T21:59:57.546Z,87.16
2019-05-18T22:02:23.521Z,87.81
2019-05-18T22:04:49.398Z,88.71
2019-05-18T22:07:15.411Z,88.53
2019-05-18T22:09:41.471Z,89.01
2019-05-18T22:12:07.399Z,90.55
2019-05-18T22:14:33.392Z,93.42
2019-05-18T22:16:59.354Z,93.88
2019-05-18T22:19:25.202Z,92.98
2019-05-18T22:21:51.026Z,92.26
2019-05-18T22:24:16.959Z,93.91
2019-05-18T22:26:42.857Z,93.83
2019-05-18T22:29:08.928Z,97.05
2019-05-18T22:31:34.822Z,97.36
2019-05-18T22:34:00.761Z,97.58
2019-05-18T22:36:26.733Z,96.75
2019-05-18T22:38:52.673Z,95.80
2019-05-18T22:41:18.535Z,97.58
2019-05-18T22:43:44.507Z,97.38
2019-05-18T22:46:10.377Z,97.68
2019-05-18T22:48:41.176Z,97.32
2019-05-18T22:51:03.990Z,97.14
2019-05-18T22:53:29.970Z,97.39
2019-05-18T22:55:55.941Z,98.36
2019-05-18T22:58:21.781Z,98.50
2019-05-18T23:00:47.824Z,100.00
2019-05-18T23:03:13.715Z,100.00
2019-05-18T23:05:39.671Z,100.00
2019-05-18T23:08:05.621Z,100.00
2019-05-18T23:10:31.572Z,100.00
2019-05-18T23:12:57.529Z,100.00
2019-05-18T23:15:23.392Z,100.00
2019-05-18T23:17:49.356Z,100.00
2019-05-18T23:20:15.427Z,100.00
2019-05-18T23:22:41.399Z,100.00
2019-05-18T23:25:07.437Z,100.00
2019-05-18T23:27:33.280Z,100.00
2019-05-18T23:29:59.216Z,100.00
2019-05-18T23:32:25.209Z,100.00
2019-05-18T23:34:51.141Z,100.00
2019-05-18T23:37:16.997Z,100.00
2019-05-18T23:39:43.805Z,100.00
2019-05-18T23:42:09.653Z,100.00
2019-05-18T23:44:35.507Z,100.00
2019-05-18T23:47:01.460Z,100.00
2019-05-18T23:49:27.418Z,100.00
2019-05-18T23:51:53.339Z,100.00
2019-05-18T23:54:19.188Z,100.00
2019-05-18T23:56:45.028Z,100.00
2019-05-18T23:59:11.079Z,100.00
